St Pierre — FIDX — position and weather

sailwx.info

Track history (hours):
 
Tides and Currents Weather Stations Pressure Air Temp Water Temp Dewpoint Dewpoint Depression Visibility Wind Speed Wind Dir Waves Ship Positions

St Pierre

Last reported at 2018-Apr-26 03:30 UTC. Time now 2018-Apr-26 03:30 UTC.
Position N 47°12' W 001°38'.

Length 84 m; draft 6.1 m.

Type: Cargo ship. MMSI: 228024800.

Date/timePositionNaut miles runAvg speedWind from/ knotsBaromVisibWave heightAir tempDewpointWater temp
2018-Apr-26 03:30N 47°12' W 001°38'0 0.0
2018-Apr-26 03:00N 47°12' W 001°38'0 0.0
2018-Apr-26 02:30N 47°12' W 001°38'0 0.0
2018-Apr-26 02:00N 47°12' W 001°38'0 0.0
2018-Apr-26 01:30N 47°12' W 001°38'0 0.0
2018-Apr-26 01:00N 47°12' W 001°38'0 0.0
2018-Apr-26 00:30N 47°12' W 001°38'0 0.0
2018-Apr-26 00:00N 47°12' W 001°38'0 0.0
2018-Apr-25 23:30N 47°12' W 001°38'0 0.0
2018-Apr-25 23:00N 47°12' W 001°38'0 0.0
2018-Apr-25 22:30N 47°12' W 001°38'0 0.0
2018-Apr-25 22:00N 47°12' W 001°38'0 0.0
2018-Apr-25 21:30N 47°12' W 001°38'0 0.0
2018-Apr-25 21:00N 47°12' W 001°38'0 0.0
2018-Apr-25 20:30N 47°12' W 001°38'0 0.0
2018-Apr-25 20:00N 47°12' W 001°38'0 0.0
2018-Apr-25 19:30N 47°12' W 001°38'0 0.0
2018-Apr-25 19:00N 47°12' W 001°38'0 0.0
2018-Apr-25 18:30N 47°12' W 001°38'0 0.0
2018-Apr-25 18:00N 47°12' W 001°38'0 0.0
2018-Apr-25 17:30N 47°12' W 001°38'0 0.0
2018-Apr-25 17:00N 47°12' W 001°38'0 0.0
2018-Apr-25 16:30N 47°12' W 001°38'0 0.0
2018-Apr-25 15:59N 47°12' W 001°38'0 0.0
2018-Apr-25 15:30N 47°12' W 001°38'0 0.0
2018-Apr-25 15:00N 47°12' W 001°38'0 0.0
2018-Apr-25 14:30N 47°12' W 001°38'0 0.0
2018-Apr-25 13:59N 47°12' W 001°38'0 0.0
2018-Apr-25 13:30N 47°12' W 001°38'0 0.0
2018-Apr-25 13:00N 47°12' W 001°38'1 2.6
2018-Apr-25 12:30N 47°12' W 001°40'5 8.9
2018-Apr-25 11:55N 47°13' W 001°47'5 9.6
2018-Apr-25 11:25N 47°16' W 001°52'5 9.9
2018-Apr-25 10:54N 47°17' W 001°60'4 9.8
2018-Apr-25 10:30N 47°18' W 002°05'510.1
2018-Apr-25 10:00N 47°16' W 002°12'510.2
2018-Apr-25 09:29N 47°12' W 002°17'5 9.7
2018-Apr-25 08:56N 47°07' W 002°21'4 9.2
2018-Apr-25 08:30N 47°05' W 002°25'4 8.4
2018-Apr-25 07:59N 47°02' W 002°30'4 5.2
2018-Apr-25 07:14N 46°59' W 002°34'0 1.1
2018-Apr-25 07:00N 46°59' W 002°34'0 0.7
2018-Apr-25 06:20N 46°59' W 002°34'0 1.5
2018-Apr-25 06:00N 46°59' W 002°34'4 5.5
2018-Apr-25 05:19N 47°02' W 002°29'3 8.9
2018-Apr-25 05:00N 47°04' W 002°26'5 9.3
2018-Apr-25 04:27N 47°07' W 002°21'4 9.3
2018-Apr-25 04:00N 47°11' W 002°18'5 9.9
2018-Apr-25 03:29N 47°15' W 002°14'510.5
2018-Apr-25 03:00N 47°18' W 002°08'510.1
2018-Apr-25 02:30N 47°17' W 002°00'510.5
2018-Apr-25 02:00N 47°16' W 001°53'5 9.6
2018-Apr-25 01:30N 47°13' W 001°48'5 9.6
2018-Apr-25 01:00N 47°12' W 001°41'2 4.3
2018-Apr-25 00:30N 47°12' W 001°38'0 0.0
2018-Apr-25 00:00N 47°12' W 001°38'0 0.0
2018-Apr-24 23:30N 47°12' W 001°38'0 0.0
2018-Apr-24 23:00N 47°12' W 001°38'2 3.5
2018-Apr-24 22:30N 47°12' W 001°41'5 9.5
2018-Apr-24 22:00N 47°13' W 001°47'5 9.5
2018-Apr-24 21:30N 47°16' W 001°52'510.1
2018-Apr-24 21:00N 47°17' W 001°59'510.2
2018-Apr-24 20:30N 47°18' W 002°07'5 9.8
2018-Apr-24 20:00N 47°15' W 002°13'5 9.7
2018-Apr-24 19:30N 47°12' W 002°17'5 9.5
2018-Apr-24 19:00N 47°08' W 002°21'4 8.4
2018-Apr-24 18:30N 47°05' W 002°25'4 7.6
2018-Apr-24 18:00N 47°02' W 002°30'4 7.5
2018-Apr-24 17:30N 46°60' W 002°34'0 0.8
2018-Apr-24 17:00N 46°59' W 002°34'0 0.2
2018-Apr-24 16:30N 46°59' W 002°34'0 0.4
2018-Apr-24 16:00N 46°59' W 002°34'2 3.3
2018-Apr-24 15:30N 47°00' W 002°32'510.1
2018-Apr-24 15:00N 47°04' W 002°27'510.1
2018-Apr-24 14:30N 47°07' W 002°21'5 9.9
2018-Apr-24 14:00N 47°12' W 002°18'5 9.9
2018-Apr-24 13:30N 47°15' W 002°13'5 9.5
2018-Apr-24 13:00N 47°18' W 002°07'0 0.4
2018-Apr-24 12:30N 47°18' W 002°07'0 0.0
2018-Apr-24 12:00N 47°18' W 002°07'0 0.0
2018-Apr-24 11:30N 47°18' W 002°07'0 0.0
2018-Apr-24 11:00N 47°18' W 002°07'0 0.0
2018-Apr-24 10:30N 47°18' W 002°07'0 0.0
2018-Apr-24 10:00N 47°18' W 002°07'0 0.0
2018-Apr-24 09:29N 47°18' W 002°07'0 0.0
2018-Apr-24 09:00N 47°18' W 002°07'0 0.0
2018-Apr-24 08:30N 47°18' W 002°07'0 0.0
2018-Apr-24 08:00N 47°18' W 002°07'0 0.0
2018-Apr-24 07:30N 47°18' W 002°07'0 0.0
2018-Apr-24 07:00N 47°18' W 002°07'0 0.0
2018-Apr-24 06:30N 47°18' W 002°07'0 0.0
2018-Apr-24 06:00N 47°18' W 002°07'0 0.0
2018-Apr-24 05:30N 47°18' W 002°07'0 0.0
2018-Apr-24 05:00N 47°18' W 002°07'0 0.0
2018-Apr-24 04:30N 47°18' W 002°07'0 0.0
2018-Apr-24 04:00N 47°18' W 002°07'0 0.0
2018-Apr-24 03:30N 47°18' W 002°07'0 0.0
2018-Apr-24 03:00N 47°18' W 002°07'0 0.0
2018-Apr-24 02:30N 47°18' W 002°07'0 0.0
2018-Apr-24 02:00N 47°18' W 002°07'0 0.0
2018-Apr-24 01:30N 47°18' W 002°07'0 0.0
2018-Apr-24 01:00N 47°18' W 002°07'0 0.0
2018-Apr-24 00:30N 47°18' W 002°07'0 0.0
2018-Apr-24 00:00N 47°18' W 002°07'0 0.0
2018-Apr-23 23:30N 47°18' W 002°07'0 0.0
2018-Apr-23 23:00N 47°18' W 002°07'0 0.0
2018-Apr-23 22:30N 47°18' W 002°07'0 0.0
2018-Apr-23 22:00N 47°18' W 002°07'0 0.0
2018-Apr-23 21:30N 47°18' W 002°07'0 0.0
2018-Apr-23 21:00N 47°18' W 002°07'0 0.0
2018-Apr-23 20:30N 47°18' W 002°07'0 0.0
2018-Apr-23 20:00N 47°18' W 002°07'0 0.0
2018-Apr-23 19:30N 47°18' W 002°07'0 0.0
2018-Apr-23 19:00N 47°18' W 002°07'0 0.0
2018-Apr-23 18:30N 47°18' W 002°07'0 0.0
2018-Apr-23 18:00N 47°18' W 002°07'0 0.0
2018-Apr-23 17:30N 47°18' W 002°07'0 0.0
2018-Apr-23 17:00N 47°18' W 002°07'0 0.0
2018-Apr-23 16:30N 47°18' W 002°07'0 0.0
2018-Apr-23 16:00N 47°18' W 002°07'0 0.0
2018-Apr-23 15:30N 47°18' W 002°07'0 0.0
2018-Apr-23 15:00N 47°18' W 002°07'0 0.0
2018-Apr-23 14:30N 47°18' W 002°07'0 0.0
2018-Apr-23 13:59N 47°18' W 002°07'0 0.0
2018-Apr-23 13:30N 47°18' W 002°07'0 0.0
2018-Apr-23 13:00N 47°18' W 002°07'0 0.0
2018-Apr-23 12:29N 47°18' W 002°07'0 0.0
2018-Apr-23 12:00N 47°18' W 002°07'0 0.0
2018-Apr-23 11:30N 47°18' W 002°07'0 0.0
2018-Apr-23 10:58N 47°18' W 002°07'0 0.0
2018-Apr-23 10:24N 47°18' W 002°07'0 0.0
2018-Apr-23 10:00N 47°18' W 002°07'0 0.0
2018-Apr-23 09:30N 47°18' W 002°07'0 0.0
2018-Apr-23 09:00N 47°18' W 002°07'0 0.0
2018-Apr-23 08:30N 47°18' W 002°07'0 0.0
2018-Apr-23 08:00N 47°18' W 002°07'0 0.0
2018-Apr-23 07:30N 47°18' W 002°07'0 0.0
2018-Apr-23 07:00N 47°18' W 002°07'0 0.0
2018-Apr-23 06:30N 47°18' W 002°07'0 0.0
2018-Apr-23 06:00N 47°18' W 002°07'0 0.0
2018-Apr-23 05:30N 47°18' W 002°07'0 0.0
2018-Apr-23 05:00N 47°18' W 002°07'0 0.0
2018-Apr-23 04:30N 47°18' W 002°07'0 0.0
2018-Apr-23 04:00N 47°18' W 002°07'0 0.0
2018-Apr-23 03:30N 47°18' W 002°07'0 0.0
2018-Apr-23 03:00N 47°18' W 002°07'0 0.0
2018-Apr-23 02:30N 47°18' W 002°07'0 0.0
2018-Apr-23 02:00N 47°18' W 002°07'0 0.0
2018-Apr-23 01:30N 47°18' W 002°07'0 0.0
2018-Apr-23 01:00N 47°18' W 002°07'0 0.0
2018-Apr-23 00:30N 47°18' W 002°07'0 0.0
2018-Apr-23 00:00N 47°18' W 002°07'0 0.0
2018-Apr-22 23:30N 47°18' W 002°07'0 0.0
2018-Apr-22 23:00N 47°18' W 002°07'0 0.0
2018-Apr-22 22:30N 47°18' W 002°07'0 0.0
2018-Apr-22 22:00N 47°18' W 002°07'0 0.0
2018-Apr-22 21:30N 47°18' W 002°07'0 0.0
2018-Apr-22 21:00N 47°18' W 002°07'0 0.0
2018-Apr-22 20:30N 47°18' W 002°07'0 0.0
2018-Apr-22 20:00N 47°18' W 002°07'0 0.0
2018-Apr-22 19:30N 47°18' W 002°07'0 0.0
2018-Apr-22 19:00N 47°18' W 002°07'0 0.0
2018-Apr-22 18:30N 47°18' W 002°07'0 0.0
2018-Apr-22 18:00N 47°18' W 002°07'0 0.0
2018-Apr-22 17:30N 47°18' W 002°07'0 0.0
2018-Apr-22 17:00N 47°18' W 002°07'0 0.0
2018-Apr-22 16:30N 47°18' W 002°07'0 0.0
2018-Apr-22 16:00N 47°18' W 002°07'0 0.0
2018-Apr-22 15:30N 47°18' W 002°07'0 0.0
2018-Apr-22 15:00N 47°18' W 002°07'0 0.0
2018-Apr-22 14:30N 47°18' W 002°07'0 0.0
2018-Apr-22 14:00N 47°18' W 002°07'0 0.0
2018-Apr-22 13:30N 47°18' W 002°07'0 0.0
2018-Apr-22 13:00N 47°18' W 002°07'0 0.0
2018-Apr-22 12:30N 47°18' W 002°07'0 0.1
2018-Apr-22 12:00N 47°18' W 002°07'510.8
2018-Apr-22 11:30N 47°17' W 001°59'612.0
2018-Apr-22 11:00N 47°15' W 001°51'611.1
2018-Apr-22 10:30N 47°12' W 001°44'4 8.4
2018-Apr-22 10:00N 47°12' W 001°38'0 0.0
2018-Apr-22 09:30N 47°12' W 001°38'0 0.0
2018-Apr-22 09:00N 47°12' W 001°38'0 0.0
2018-Apr-22 08:30N 47°12' W 001°38'0 0.3
2018-Apr-22 08:00N 47°12' W 001°38'5 9.4
2018-Apr-22 07:30N 47°12' W 001°45'510.3
2018-Apr-22 07:00N 47°15' W 001°51'611.3
2018-Apr-22 06:30N 47°17' W 001°59'612.0
2018-Apr-22 06:00N 47°18' W 002°08'611.9
2018-Apr-22 05:30N 47°14' W 002°15'3 6.3
2018-Apr-22 05:00N 47°12' W 002°18'3 6.2
2018-Apr-22 04:30N 47°10' W 002°20'510.1
2018-Apr-22 04:00N 47°05' W 002°24'611.7
2018-Apr-22 03:30N 47°02' W 002°31'3 6.2
2018-Apr-22 03:00N 46°60' W 002°34'1 1.2
2018-Apr-22 02:30N 46°60' W 002°34'1 1.2
2018-Apr-22 02:00N 47°00' W 002°33'4 8.3
2018-Apr-22 01:30N 47°03' W 002°28'612.6
2018-Apr-22 01:00N 47°07' W 002°21'612.2
2018-Apr-22 00:30N 47°12' W 002°17'713.7
2018-Apr-22 00:00N 47°17' W 002°10'713.4
2018-Apr-21 23:30N 47°17' W 001°60'612.9
2018-Apr-21 23:00N 47°15' W 001°51'611.3
2018-Apr-21 22:30N 47°12' W 001°44'4 8.0
2018-Apr-21 22:00N 47°12' W 001°38'0 0.0
2018-Apr-21 21:30N 47°12' W 001°38'0 0.0
2018-Apr-21 21:00N 47°12' W 001°38'0 0.0
2018-Apr-21 20:30N 47°12' W 001°38'0 0.0
2018-Apr-21 20:00N 47°12' W 001°38'3 6.5
2018-Apr-21 19:30N 47°12' W 001°43'510.8
2018-Apr-21 19:00N 47°14' W 001°50'510.8
2018-Apr-21 18:30N 47°17' W 001°57'611.5
2018-Apr-21 18:00N 47°18' W 002°05'611.3
2018-Apr-21 17:30N 47°16' W 002°12'612.0
2018-Apr-21 17:00N 47°11' W 002°18'612.0
2018-Apr-21 16:30N 47°06' W 002°23'612.5
2018-Apr-21 16:00N 47°02' W 002°30'4 8.1
2018-Apr-21 15:30N 46°59' W 002°35'1 1.4
2018-Apr-21 15:00N 46°60' W 002°34'0 0.8
2018-Apr-21 14:30N 46°59' W 002°34'2 3.2
2018-Apr-21 14:00N 47°00' W 002°36'713.2
2018-Apr-21 13:30N 47°05' W 002°43'612.9
2018-Apr-21 13:00N 47°10' W 002°49'713.2
2018-Apr-21 12:30N 47°15' W 002°55'713.1
2018-Apr-21 12:00N 47°20' W 003°01'612.9
2018-Apr-21 11:30N 47°25' W 003°07'612.2
2018-Apr-21 11:00N 47°30' W 003°12'612.7
2018-Apr-21 10:30N 47°35' W 003°17'612.9
2018-Apr-21 10:00N 47°41' W 003°22'4 8.5
2018-Apr-21 09:30N 47°45' W 003°19'0 0.3
2018-Apr-21 09:00N 47°45' W 003°19'0 0.0
2018-Apr-21 08:30N 47°45' W 003°19'0 0.0
2018-Apr-21 08:00N 47°45' W 003°19'0 0.0
2018-Apr-21 07:30N 47°45' W 003°19'0 0.0
2018-Apr-21 07:00N 47°45' W 003°19'0 0.5
2018-Apr-21 06:30N 47°45' W 003°19'3 5.2
2018-Apr-21 06:00N 47°43' W 003°22'3 6.2
2018-Apr-21 05:30N 47°40' W 003°25'0 0.2
2018-Apr-21 04:59N 47°40' W 003°25'0 0.0
2018-Apr-21 04:30N 47°40' W 003°25'0 0.0
2018-Apr-21 04:00N 47°40' W 003°25'0 0.0
2018-Apr-21 03:30N 47°40' W 003°25'0 0.0
2018-Apr-21 03:00N 47°40' W 003°25'0 0.0
2018-Apr-21 02:30N 47°40' W 003°25'0 0.0
2018-Apr-21 02:00N 47°40' W 003°25'0 0.0
2018-Apr-21 01:30N 47°40' W 003°25'0 0.0
2018-Apr-21 01:00N 47°40' W 003°25'0 0.0
2018-Apr-21 00:30N 47°40' W 003°25'0 0.0
2018-Apr-21 00:00N 47°40' W 003°25'0 0.0
2018-Apr-20 23:30N 47°40' W 003°25'0 0.0
2018-Apr-20 23:00N 47°40' W 003°25'0 0.0
2018-Apr-20 22:30N 47°40' W 003°25'0 0.0
2018-Apr-20 22:00N 47°40' W 003°25'0 0.1
2018-Apr-20 21:30N 47°40' W 003°25'3 6.7
2018-Apr-20 21:00N 47°38' W 003°21'4 7.7
2018-Apr-20 20:30N 47°35' W 003°17'4 7.5
2018-Apr-20 20:00N 47°32' W 003°15'4 7.8
2018-Apr-20 19:30N 47°28' W 003°12'4 7.4
2018-Apr-20 19:00N 47°25' W 003°09'4 7.5
2018-Apr-20 18:30N 47°23' W 003°05'4 7.7
2018-Apr-20 18:00N 47°20' W 003°01'4 7.8
2018-Apr-20 17:30N 47°18' W 002°56'4 7.9
2018-Apr-20 16:59N 47°15' W 002°52'4 8.0
2018-Apr-20 16:30N 47°12' W 002°48'4 8.4
2018-Apr-20 16:00N 47°09' W 002°44'4 8.1
2018-Apr-20 15:30N 47°06' W 002°40'6 7.1
2018-Apr-20 14:38N 47°01' W 002°34'1 5.2
2018-Apr-20 14:21N 46°60' W 002°34'0 1.1
2018-Apr-20 14:00N 47°00' W 002°33'2 1.2
2018-Apr-20 12:35N 46°59' W 002°35'0 0.2
2018-Apr-20 12:30N 46°59' W 002°35'1 2.1
2018-Apr-20 11:58N 46°60' W 002°34'1 2.7
2018-Apr-20 11:30N 47°01' W 002°32'5 9.7
2018-Apr-20 10:59N 47°04' W 002°27'810.1
2018-Apr-20 10:10N 47°10' W 002°19'510.5
2018-Apr-20 09:43N 47°14' W 002°15'311.4
2018-Apr-20 09:28N 47°16' W 002°12'4 9.3
2018-Apr-20 09:00N 47°18' W 002°07'0 0.1
2018-Apr-20 08:30N 47°18' W 002°07'0 0.0
2018-Apr-20 08:00N 47°18' W 002°07'0 0.0
2018-Apr-20 07:30N 47°18' W 002°07'0 0.0
2018-Apr-20 07:00N 47°18' W 002°07'0 0.0
2018-Apr-20 06:30N 47°18' W 002°07'3 6.8
2018-Apr-20 06:00N 47°16' W 002°11'5 9.9
2018-Apr-20 05:30N 47°13' W 002°17'3 6.4
2018-Apr-20 05:00N 47°10' W 002°18'3 6.1
2018-Apr-20 04:30N 47°07' W 002°21'3 6.0
2018-Apr-20 04:00N 47°05' W 002°24'3 6.2
2018-Apr-20 03:30N 47°04' W 002°28'3 6.3
2018-Apr-20 03:00N 47°02' W 002°32'1 2.0
2018-Apr-20 02:30N 47°01' W 002°32'1 2.7
2018-Apr-20 02:00N 47°00' W 002°34'1 2.6
2018-Apr-20 01:31N 46°59' W 002°35'1 1.2
2018-Apr-20 01:00N 46°59' W 002°34'0 0.1
2018-Apr-20 00:30N 46°59' W 002°34'0 0.2
2018-Apr-20 00:00N 46°59' W 002°34'1 1.1
2018-Apr-19 23:30N 46°60' W 002°34'4 8.1
2018-Apr-19 23:00N 47°02' W 002°29'5 9.2
2018-Apr-19 22:30N 47°05' W 002°24'5 9.4
2018-Apr-19 22:00N 47°09' W 002°19'5 9.4
2018-Apr-19 21:30N 47°13' W 002°16'510.2
2018-Apr-19 21:00N 47°17' W 002°11'612.1
2018-Apr-19 20:30N 47°18' W 002°02'612.5
2018-Apr-19 20:00N 47°16' W 001°53'612.5
2018-Apr-19 19:30N 47°12' W 001°46'611.1
2018-Apr-19 19:00N 47°12' W 001°38'0 0.2
2018-Apr-19 18:30N 47°12' W 001°38'0 0.0
2018-Apr-19 18:00N 47°12' W 001°38'0 0.0
2018-Apr-19 17:30N 47°12' W 001°38'0 0.1
2018-Apr-19 17:00N 47°12' W 001°38'4 8.7
2018-Apr-19 16:30N 47°12' W 001°44'510.5
2018-Apr-19 15:58N 47°15' W 001°51'511.7
2018-Apr-19 15:30N 47°17' W 001°59'612.5
2018-Apr-19 15:00N 47°18' W 002°08'612.3
2018-Apr-19 14:30N 47°14' W 002°15'5 9.9
2018-Apr-19 14:00N 47°10' W 002°19'5 9.2
2018-Apr-19 13:25N 47°06' W 002°24'9 9.5
2018-Apr-19 12:26N 47°00' W 002°35'1 1.8
2018-Apr-19 12:00N 46°60' W 002°35'1 1.2
2018-Apr-19 11:08N 47°00' W 002°33'0 1.8
2018-Apr-19 10:59N 47°00' W 002°33'4 7.9
2018-Apr-19 10:30N 47°03' W 002°29'612.7
2018-Apr-19 10:00N 47°07' W 002°22'612.8
2018-Apr-19 09:30N 47°12' W 002°17'713.6
2018-Apr-19 09:01N 47°17' W 002°10'612.6
2018-Apr-19 08:31N 47°17' W 002°01'713.3
2018-Apr-19 08:00N 47°16' W 001°51'612.0
2018-Apr-19 07:31N 47°12' W 001°44'4 8.4
2018-Apr-19 07:01N 47°12' W 001°38'0 0.0
2018-Apr-19 06:31N 47°12' W 001°38'0 0.0
2018-Apr-19 06:00N 47°12' W 001°38'0 0.0
2018-Apr-19 05:31N 47°12' W 001°38'1 2.2
2018-Apr-19 05:01N 47°12' W 001°39'611.2
2018-Apr-19 04:30N 47°13' W 001°48'611.5
2018-Apr-19 04:00N 47°17' W 001°54'612.3
2018-Apr-19 03:31N 47°18' W 002°02'612.0
2018-Apr-19 03:01N 47°16' W 002°11'611.1
2018-Apr-19 02:31N 47°12' W 002°17'4 8.2
2018-Apr-19 02:01N 47°09' W 002°19'4 8.1
2018-Apr-19 01:31N 47°06' W 002°23'4 8.5
2018-Apr-19 01:00N 47°03' W 002°28'3 6.2
2018-Apr-19 00:30N 47°01' W 002°32'3 5.1
2018-Apr-19 00:00N 46°59' W 002°34'1 1.5
2018-Apr-18 23:30N 46°60' W 002°34'1 1.1
2018-Apr-18 22:59N 46°59' W 002°34'0 0.5
2018-Apr-18 22:31N 46°59' W 002°34'3 5.8
2018-Apr-18 22:01N 47°01' W 002°31'612.7
2018-Apr-18 21:31N 47°05' W 002°24'612.7
2018-Apr-18 21:01N 47°11' W 002°18'713.1
2018-Apr-18 20:30N 47°16' W 002°12'612.6
2018-Apr-18 20:01N 47°18' W 002°04'713.7
2018-Apr-18 19:30N 47°17' W 001°53'612.7
2018-Apr-18 19:00N 47°12' W 001°46'611.5
2018-Apr-18 18:30N 47°12' W 001°38'0 0.4
2018-Apr-18 18:00N 47°12' W 001°38'0 0.0
2018-Apr-18 17:30N 47°12' W 001°38'0 0.0
2018-Apr-18 17:00N 47°12' W 001°38'0 0.0
2018-Apr-18 16:29N 47°12' W 001°38'2 3.5
2018-Apr-18 16:00N 47°12' W 001°40'611.2
2018-Apr-18 15:30N 47°13' W 001°48'611.1
2018-Apr-18 15:00N 47°17' W 001°54'612.2
2018-Apr-18 14:29N 47°18' W 002°04'910.2
2018-Apr-18 13:35N 47°14' W 002°15'3 7.0
2018-Apr-18 13:10N 47°11' W 002°18'2 5.5
2018-Apr-18 12:48N 47°10' W 002°19'2 5.5
2018-Apr-18 12:27N 47°08' W 002°20'5 7.5
2018-Apr-18 11:49N 47°05' W 002°25'3 8.3
2018-Apr-18 11:25N 47°02' W 002°29'4 7.8
2018-Apr-18 10:56N 46°60' W 002°33'1 2.0
2018-Apr-18 10:25N 46°59' W 002°34'0 0.2
2018-Apr-18 10:00N 46°59' W 002°34'0 0.1
2018-Apr-18 09:30N 46°59' W 002°34'0 0.2
2018-Apr-18 09:01N 46°59' W 002°34'2 4.7
2018-Apr-18 08:30N 47°01' W 002°37'4 7.5
2018-Apr-18 08:00N 47°02' W 002°42'4 7.0
2018-Apr-18 07:30N 47°04' W 002°47'4 7.5
2018-Apr-18 07:00N 47°06' W 002°51'4 8.7
2018-Apr-18 06:30N 47°08' W 002°56'5 9.0
2018-Apr-18 06:00N 47°11' W 003°02'5 9.2
2018-Apr-18 05:30N 47°13' W 003°08'5 9.2
2018-Apr-18 05:00N 47°16' W 003°13'5 9.4
2018-Apr-18 04:30N 47°19' W 003°19'510.1
2018-Apr-18 04:00N 47°21' W 003°25'510.2
2018-Apr-18 03:29N 47°24' W 003°32'5 9.7
2018-Apr-18 03:01N 47°27' W 003°37'510.3
2018-Apr-18 02:30N 47°29' W 003°44'510.4
2018-Apr-18 02:00N 47°32' W 003°51'5 9.8
2018-Apr-18 01:30N 47°34' W 003°57'7 9.3
2018-Apr-18 00:45N 47°38' W 004°06'2 9.0
2018-Apr-18 00:30N 47°40' W 004°08'5 9.4
2018-Apr-17 23:59N 47°42' W 004°14'9 9.3
2018-Apr-17 23:02N 47°47' W 004°26'0 9.5
2018-Apr-17 23:00N 47°47' W 004°26'6 9.0
2018-Apr-17 22:20N 47°51' W 004°32'4 7.9
2018-Apr-17 21:49N 47°54' W 004°36'3 7.3
2018-Apr-17 21:26N 47°56' W 004°39'4 7.5
2018-Apr-17 20:58N 47°59' W 004°43'4 8.2
2018-Apr-17 20:30N 48°02' W 004°46'4 8.1
2018-Apr-17 20:00N 48°06' W 004°45'4 8.3
2018-Apr-17 19:31N 48°10' W 004°45'4 7.9
2018-Apr-17 19:00N 48°14' W 004°45'3 6.4
2018-Apr-17 18:30N 48°17' W 004°43'3 6.8
2018-Apr-17 18:01N 48°19' W 004°39'4 8.2
2018-Apr-17 17:30N 48°21' W 004°33'4 7.5
2018-Apr-17 17:00N 48°22' W 004°28'1 2.0
2018-Apr-17 16:30N 48°23' W 004°28'0 0.0
2018-Apr-17 16:00N 48°23' W 004°28'0 0.0
2018-Apr-17 15:30N 48°23' W 004°28'0 0.0
2018-Apr-17 15:00N 48°23' W 004°28'0 0.0
2018-Apr-17 14:30N 48°23' W 004°28'0 0.0
2018-Apr-17 14:00N 48°23' W 004°28'0 0.0
2018-Apr-17 13:30N 48°23' W 004°28'0 0.0
2018-Apr-17 13:00N 48°23' W 004°28'0 0.0
2018-Apr-17 12:30N 48°23' W 004°28'0 0.0
2018-Apr-17 12:00N 48°23' W 004°28'0 0.0
2018-Apr-17 11:30N 48°23' W 004°28'0 0.0
2018-Apr-17 11:00N 48°23' W 004°28'0 0.0
2018-Apr-17 10:30N 48°23' W 004°28'0 0.0
2018-Apr-17 10:00N 48°23' W 004°28'0 0.0
2018-Apr-17 09:30N 48°23' W 004°28'0 0.0
2018-Apr-17 09:00N 48°23' W 004°28'0 0.0
2018-Apr-17 08:30N 48°23' W 004°28'0 0.0
2018-Apr-17 08:00N 48°23' W 004°28'0 0.0
2018-Apr-17 07:30N 48°23' W 004°28'0 0.0
2018-Apr-17 07:00N 48°23' W 004°28'0 0.0
2018-Apr-17 06:30N 48°23' W 004°28'0 0.0
2018-Apr-17 06:01N 48°23' W 004°28'0 0.0
2018-Apr-17 05:30N 48°23' W 004°28'0 0.0
2018-Apr-17 05:00N 48°23' W 004°28'0 0.0
2018-Apr-17 04:30N 48°23' W 004°28'0 0.0
2018-Apr-17 04:01N 48°23' W 004°28'0 0.0
2018-Apr-17 03:30N 48°23' W 004°28'0 0.0
2018-Apr-17 03:01N 48°23' W 004°28'0 0.0
2018-Apr-17 02:30N 48°23' W 004°28'0 0.0
2018-Apr-17 02:00N 48°23' W 004°28'0 0.0
2018-Apr-17 01:30N 48°23' W 004°28'0 0.0
2018-Apr-17 01:00N 48°23' W 004°28'0 0.0
2018-Apr-17 00:30N 48°23' W 004°28'0 0.0
2018-Apr-17 00:00N 48°23' W 004°28'0 0.0
2018-Apr-16 23:30N 48°23' W 004°28'0 0.0
2018-Apr-16 23:00N 48°23' W 004°28'0 0.0
2018-Apr-16 22:30N 48°23' W 004°28'0 0.0
2018-Apr-16 22:00N 48°23' W 004°28'0 0.0
2018-Apr-16 21:30N 48°23' W 004°28'0 0.0
2018-Apr-16 21:00N 48°23' W 004°28'0 0.0
2018-Apr-16 20:30N 48°23' W 004°28'0 0.0
2018-Apr-16 20:00N 48°23' W 004°28'0 0.0
2018-Apr-16 19:30N 48°23' W 004°28'0 0.0
2018-Apr-16 19:00N 48°23' W 004°28'0 0.0
2018-Apr-16 18:30N 48°23' W 004°28'0 0.0
2018-Apr-16 18:00N 48°23' W 004°28'0 0.0
2018-Apr-16 17:30N 48°23' W 004°28'0 0.0
2018-Apr-16 17:01N 48°23' W 004°28'0 0.0
2018-Apr-16 16:30N 48°23' W 004°28'0 0.0
2018-Apr-16 16:00N 48°23' W 004°28'0 0.0
2018-Apr-16 15:31N 48°23' W 004°28'0 0.0
2018-Apr-16 15:00N 48°23' W 004°28'0 0.0
2018-Apr-16 14:30N 48°23' W 004°28'0 0.0
2018-Apr-16 14:00N 48°23' W 004°28'0 0.0
2018-Apr-16 13:31N 48°23' W 004°28'0 0.0
2018-Apr-16 13:00N 48°23' W 004°28'0 0.0
2018-Apr-16 12:30N 48°23' W 004°28'0 0.0
2018-Apr-16 12:00N 48°23' W 004°28'0 0.0
2018-Apr-16 11:30N 48°23' W 004°28'0 0.0
2018-Apr-16 11:01N 48°23' W 004°28'0 0.0
2018-Apr-16 10:31N 48°23' W 004°28'0 0.0
2018-Apr-16 10:00N 48°23' W 004°28'0 0.0
2018-Apr-16 09:30N 48°23' W 004°28'0 0.0
2018-Apr-16 09:01N 48°23' W 004°28'0 0.0
2018-Apr-16 08:30N 48°23' W 004°28'0 0.0
2018-Apr-16 08:00N 48°23' W 004°28'0 0.0
2018-Apr-16 07:30N 48°23' W 004°28'0 0.0
2018-Apr-16 07:00N 48°23' W 004°28'0 0.0
2018-Apr-16 06:30N 48°23' W 004°28'0 0.0
2018-Apr-16 06:00N 48°23' W 004°28'0 0.0
2018-Apr-16 05:30N 48°23' W 004°28'0 0.0
2018-Apr-16 05:01N 48°23' W 004°28'0 0.0
2018-Apr-16 04:29N 48°23' W 004°28'0 0.0
2018-Apr-16 04:00N 48°23' W 004°28'0 0.0
2018-Apr-16 03:30N 48°23' W 004°28'  
Track history (hours):
 
Tides and Currents Weather Stations Pressure Air Temp Water Temp Dewpoint Dewpoint Depression Visibility Wind Speed Wind Dir Waves Ship Positions

St Pierre

Last reported at 2018-Apr-26 03:30 UTC. Time now 2018-Apr-26 03:30 UTC.
Position N 47°12' W 001°38'.

Length 84 m; draft 6.1 m.

Type: Cargo ship. MMSI: 228024800.

Date/timePositionNaut miles runAvg speedWind from/ knotsBaromVisibWave heightAir tempDewpointWater temp
2018-Apr-26 03:30N 47°12' W 001°38'0 0.0
2018-Apr-26 03:00N 47°12' W 001°38'0 0.0
2018-Apr-26 02:30N 47°12' W 001°38'0 0.0
2018-Apr-26 02:00N 47°12' W 001°38'0 0.0
2018-Apr-26 01:30N 47°12' W 001°38'0 0.0
2018-Apr-26 01:00N 47°12' W 001°38'0 0.0
2018-Apr-26 00:30N 47°12' W 001°38'0 0.0
2018-Apr-26 00:00N 47°12' W 001°38'0 0.0
2018-Apr-25 23:30N 47°12' W 001°38'0 0.0
2018-Apr-25 23:00N 47°12' W 001°38'0 0.0
2018-Apr-25 22:30N 47°12' W 001°38'0 0.0
2018-Apr-25 22:00N 47°12' W 001°38'0 0.0
2018-Apr-25 21:30N 47°12' W 001°38'0 0.0
2018-Apr-25 21:00N 47°12' W 001°38'0 0.0
2018-Apr-25 20:30N 47°12' W 001°38'0 0.0
2018-Apr-25 20:00N 47°12' W 001°38'0 0.0
2018-Apr-25 19:30N 47°12' W 001°38'0 0.0
2018-Apr-25 19:00N 47°12' W 001°38'0 0.0
2018-Apr-25 18:30N 47°12' W 001°38'0 0.0
2018-Apr-25 18:00N 47°12' W 001°38'0 0.0
2018-Apr-25 17:30N 47°12' W 001°38'0 0.0
2018-Apr-25 17:00N 47°12' W 001°38'0 0.0
2018-Apr-25 16:30N 47°12' W 001°38'0 0.0
2018-Apr-25 15:59N 47°12' W 001°38'0 0.0
2018-Apr-25 15:30N 47°12' W 001°38'0 0.0
2018-Apr-25 15:00N 47°12' W 001°38'0 0.0
2018-Apr-25 14:30N 47°12' W 001°38'0 0.0
2018-Apr-25 13:59N 47°12' W 001°38'0 0.0
2018-Apr-25 13:30N 47°12' W 001°38'0 0.0
2018-Apr-25 13:00N 47°12' W 001°38'1 2.6
2018-Apr-25 12:30N 47°12' W 001°40'5 8.9
2018-Apr-25 11:55N 47°13' W 001°47'5 9.6
2018-Apr-25 11:25N 47°16' W 001°52'5 9.9
2018-Apr-25 10:54N 47°17' W 001°60'4 9.8
2018-Apr-25 10:30N 47°18' W 002°05'510.1
2018-Apr-25 10:00N 47°16' W 002°12'510.2
2018-Apr-25 09:29N 47°12' W 002°17'5 9.7
2018-Apr-25 08:56N 47°07' W 002°21'4 9.2
2018-Apr-25 08:30N 47°05' W 002°25'4 8.4
2018-Apr-25 07:59N 47°02' W 002°30'4 5.2
2018-Apr-25 07:14N 46°59' W 002°34'0 1.1
2018-Apr-25 07:00N 46°59' W 002°34'0 0.7
2018-Apr-25 06:20N 46°59' W 002°34'0 1.5
2018-Apr-25 06:00N 46°59' W 002°34'4 5.5
2018-Apr-25 05:19N 47°02' W 002°29'3 8.9
2018-Apr-25 05:00N 47°04' W 002°26'5 9.3
2018-Apr-25 04:27N 47°07' W 002°21'4 9.3
2018-Apr-25 04:00N 47°11' W 002°18'5 9.9
2018-Apr-25 03:29N 47°15' W 002°14'510.5
2018-Apr-25 03:00N 47°18' W 002°08'510.1
2018-Apr-25 02:30N 47°17' W 002°00'510.5
2018-Apr-25 02:00N 47°16' W 001°53'5 9.6
2018-Apr-25 01:30N 47°13' W 001°48'5 9.6
2018-Apr-25 01:00N 47°12' W 001°41'2 4.3
2018-Apr-25 00:30N 47°12' W 001°38'0 0.0
2018-Apr-25 00:00N 47°12' W 001°38'0 0.0
2018-Apr-24 23:30N 47°12' W 001°38'0 0.0
2018-Apr-24 23:00N 47°12' W 001°38'2 3.5
2018-Apr-24 22:30N 47°12' W 001°41'5 9.5
2018-Apr-24 22:00N 47°13' W 001°47'5 9.5
2018-Apr-24 21:30N 47°16' W 001°52'510.1
2018-Apr-24 21:00N 47°17' W 001°59'510.2
2018-Apr-24 20:30N 47°18' W 002°07'5 9.8
2018-Apr-24 20:00N 47°15' W 002°13'5 9.7
2018-Apr-24 19:30N 47°12' W 002°17'5 9.5
2018-Apr-24 19:00N 47°08' W 002°21'4 8.4
2018-Apr-24 18:30N 47°05' W 002°25'4 7.6
2018-Apr-24 18:00N 47°02' W 002°30'4 7.5
2018-Apr-24 17:30N 46°60' W 002°34'0 0.8
2018-Apr-24 17:00N 46°59' W 002°34'0 0.2
2018-Apr-24 16:30N 46°59' W 002°34'0 0.4
2018-Apr-24 16:00N 46°59' W 002°34'2 3.3
2018-Apr-24 15:30N 47°00' W 002°32'510.1
2018-Apr-24 15:00N 47°04' W 002°27'510.1
2018-Apr-24 14:30N 47°07' W 002°21'5 9.9
2018-Apr-24 14:00N 47°12' W 002°18'5 9.9
2018-Apr-24 13:30N 47°15' W 002°13'5 9.5
2018-Apr-24 13:00N 47°18' W 002°07'0 0.4
2018-Apr-24 12:30N 47°18' W 002°07'0 0.0
2018-Apr-24 12:00N 47°18' W 002°07'0 0.0
2018-Apr-24 11:30N 47°18' W 002°07'0 0.0
2018-Apr-24 11:00N 47°18' W 002°07'0 0.0
2018-Apr-24 10:30N 47°18' W 002°07'0 0.0
2018-Apr-24 10:00N 47°18' W 002°07'0 0.0
2018-Apr-24 09:29N 47°18' W 002°07'0 0.0
2018-Apr-24 09:00N 47°18' W 002°07'0 0.0
2018-Apr-24 08:30N 47°18' W 002°07'0 0.0
2018-Apr-24 08:00N 47°18' W 002°07'0 0.0
2018-Apr-24 07:30N 47°18' W 002°07'0 0.0
2018-Apr-24 07:00N 47°18' W 002°07'0 0.0
2018-Apr-24 06:30N 47°18' W 002°07'0 0.0
2018-Apr-24 06:00N 47°18' W 002°07'0 0.0
2018-Apr-24 05:30N 47°18' W 002°07'0 0.0
2018-Apr-24 05:00N 47°18' W 002°07'0 0.0
2018-Apr-24 04:30N 47°18' W 002°07'0 0.0
2018-Apr-24 04:00N 47°18' W 002°07'0 0.0
2018-Apr-24 03:30N 47°18' W 002°07'0 0.0
2018-Apr-24 03:00N 47°18' W 002°07'0 0.0
2018-Apr-24 02:30N 47°18' W 002°07'0 0.0
2018-Apr-24 02:00N 47°18' W 002°07'0 0.0
2018-Apr-24 01:30N 47°18' W 002°07'0 0.0
2018-Apr-24 01:00N 47°18' W 002°07'0 0.0
2018-Apr-24 00:30N 47°18' W 002°07'0 0.0
2018-Apr-24 00:00N 47°18' W 002°07'0 0.0
2018-Apr-23 23:30N 47°18' W 002°07'0 0.0
2018-Apr-23 23:00N 47°18' W 002°07'0 0.0
2018-Apr-23 22:30N 47°18' W 002°07'0 0.0
2018-Apr-23 22:00N 47°18' W 002°07'0 0.0
2018-Apr-23 21:30N 47°18' W 002°07'0 0.0
2018-Apr-23 21:00N 47°18' W 002°07'0 0.0
2018-Apr-23 20:30N 47°18' W 002°07'0 0.0
2018-Apr-23 20:00N 47°18' W 002°07'0 0.0
2018-Apr-23 19:30N 47°18' W 002°07'0 0.0
2018-Apr-23 19:00N 47°18' W 002°07'0 0.0
2018-Apr-23 18:30N 47°18' W 002°07'0 0.0
2018-Apr-23 18:00N 47°18' W 002°07'0 0.0
2018-Apr-23 17:30N 47°18' W 002°07'0 0.0
2018-Apr-23 17:00N 47°18' W 002°07'0 0.0
2018-Apr-23 16:30N 47°18' W 002°07'0 0.0
2018-Apr-23 16:00N 47°18' W 002°07'0 0.0
2018-Apr-23 15:30N 47°18' W 002°07'0 0.0
2018-Apr-23 15:00N 47°18' W 002°07'0 0.0
2018-Apr-23 14:30N 47°18' W 002°07'0 0.0
2018-Apr-23 13:59N 47°18' W 002°07'0 0.0
2018-Apr-23 13:30N 47°18' W 002°07'0 0.0
2018-Apr-23 13:00N 47°18' W 002°07'0 0.0
2018-Apr-23 12:29N 47°18' W 002°07'0 0.0
2018-Apr-23 12:00N 47°18' W 002°07'0 0.0
2018-Apr-23 11:30N 47°18' W 002°07'0 0.0
2018-Apr-23 10:58N 47°18' W 002°07'0 0.0
2018-Apr-23 10:24N 47°18' W 002°07'0 0.0
2018-Apr-23 10:00N 47°18' W 002°07'0 0.0
2018-Apr-23 09:30N 47°18' W 002°07'0 0.0
2018-Apr-23 09:00N 47°18' W 002°07'0 0.0
2018-Apr-23 08:30N 47°18' W 002°07'0 0.0
2018-Apr-23 08:00N 47°18' W 002°07'0 0.0
2018-Apr-23 07:30N 47°18' W 002°07'0 0.0
2018-Apr-23 07:00N 47°18' W 002°07'0 0.0
2018-Apr-23 06:30N 47°18' W 002°07'0 0.0
2018-Apr-23 06:00N 47°18' W 002°07'0 0.0
2018-Apr-23 05:30N 47°18' W 002°07'0 0.0
2018-Apr-23 05:00N 47°18' W 002°07'0 0.0
2018-Apr-23 04:30N 47°18' W 002°07'0 0.0
2018-Apr-23 04:00N 47°18' W 002°07'0 0.0
2018-Apr-23 03:30N 47°18' W 002°07'0 0.0
2018-Apr-23 03:00N 47°18' W 002°07'0 0.0
2018-Apr-23 02:30N 47°18' W 002°07'0 0.0
2018-Apr-23 02:00N 47°18' W 002°07'0 0.0
2018-Apr-23 01:30N 47°18' W 002°07'0 0.0
2018-Apr-23 01:00N 47°18' W 002°07'0 0.0
2018-Apr-23 00:30N 47°18' W 002°07'0 0.0
2018-Apr-23 00:00N 47°18' W 002°07'0 0.0
2018-Apr-22 23:30N 47°18' W 002°07'0 0.0
2018-Apr-22 23:00N 47°18' W 002°07'0 0.0
2018-Apr-22 22:30N 47°18' W 002°07'0 0.0
2018-Apr-22 22:00N 47°18' W 002°07'0 0.0
2018-Apr-22 21:30N 47°18' W 002°07'0 0.0
2018-Apr-22 21:00N 47°18' W 002°07'0 0.0
2018-Apr-22 20:30N 47°18' W 002°07'0 0.0
2018-Apr-22 20:00N 47°18' W 002°07'0 0.0
2018-Apr-22 19:30N 47°18' W 002°07'0 0.0
2018-Apr-22 19:00N 47°18' W 002°07'0 0.0
2018-Apr-22 18:30N 47°18' W 002°07'0 0.0
2018-Apr-22 18:00N 47°18' W 002°07'0 0.0
2018-Apr-22 17:30N 47°18' W 002°07'0 0.0
2018-Apr-22 17:00N 47°18' W 002°07'0 0.0
2018-Apr-22 16:30N 47°18' W 002°07'0 0.0
2018-Apr-22 16:00N 47°18' W 002°07'0 0.0
2018-Apr-22 15:30N 47°18' W 002°07'0 0.0
2018-Apr-22 15:00N 47°18' W 002°07'0 0.0
2018-Apr-22 14:30N 47°18' W 002°07'0 0.0
2018-Apr-22 14:00N 47°18' W 002°07'0 0.0
2018-Apr-22 13:30N 47°18' W 002°07'0 0.0
2018-Apr-22 13:00N 47°18' W 002°07'0 0.0
2018-Apr-22 12:30N 47°18' W 002°07'0 0.1
2018-Apr-22 12:00N 47°18' W 002°07'510.8
2018-Apr-22 11:30N 47°17' W 001°59'612.0
2018-Apr-22 11:00N 47°15' W 001°51'611.1
2018-Apr-22 10:30N 47°12' W 001°44'4 8.4
2018-Apr-22 10:00N 47°12' W 001°38'0 0.0
2018-Apr-22 09:30N 47°12' W 001°38'0 0.0
2018-Apr-22 09:00N 47°12' W 001°38'0 0.0
2018-Apr-22 08:30N 47°12' W 001°38'0 0.3
2018-Apr-22 08:00N 47°12' W 001°38'5 9.4
2018-Apr-22 07:30N 47°12' W 001°45'510.3
2018-Apr-22 07:00N 47°15' W 001°51'611.3
2018-Apr-22 06:30N 47°17' W 001°59'612.0
2018-Apr-22 06:00N 47°18' W 002°08'611.9
2018-Apr-22 05:30N 47°14' W 002°15'3 6.3
2018-Apr-22 05:00N 47°12' W 002°18'3 6.2
2018-Apr-22 04:30N 47°10' W 002°20'510.1
2018-Apr-22 04:00N 47°05' W 002°24'611.7
2018-Apr-22 03:30N 47°02' W 002°31'3 6.2
2018-Apr-22 03:00N 46°60' W 002°34'1 1.2
2018-Apr-22 02:30N 46°60' W 002°34'1 1.2
2018-Apr-22 02:00N 47°00' W 002°33'4 8.3
2018-Apr-22 01:30N 47°03' W 002°28'612.6
2018-Apr-22 01:00N 47°07' W 002°21'612.2
2018-Apr-22 00:30N 47°12' W 002°17'713.7
2018-Apr-22 00:00N 47°17' W 002°10'713.4
2018-Apr-21 23:30N 47°17' W 001°60'612.9
2018-Apr-21 23:00N 47°15' W 001°51'611.3
2018-Apr-21 22:30N 47°12' W 001°44'4 8.0
2018-Apr-21 22:00N 47°12' W 001°38'0 0.0
2018-Apr-21 21:30N 47°12' W 001°38'0 0.0
2018-Apr-21 21:00N 47°12' W 001°38'0 0.0
2018-Apr-21 20:30N 47°12' W 001°38'0 0.0
2018-Apr-21 20:00N 47°12' W 001°38'3 6.5
2018-Apr-21 19:30N 47°12' W 001°43'510.8
2018-Apr-21 19:00N 47°14' W 001°50'510.8
2018-Apr-21 18:30N 47°17' W 001°57'611.5
2018-Apr-21 18:00N 47°18' W 002°05'611.3
2018-Apr-21 17:30N 47°16' W 002°12'612.0
2018-Apr-21 17:00N 47°11' W 002°18'612.0
2018-Apr-21 16:30N 47°06' W 002°23'612.5
2018-Apr-21 16:00N 47°02' W 002°30'4 8.1
2018-Apr-21 15:30N 46°59' W 002°35'1 1.4
2018-Apr-21 15:00N 46°60' W 002°34'0 0.8
2018-Apr-21 14:30N 46°59' W 002°34'2 3.2
2018-Apr-21 14:00N 47°00' W 002°36'713.2
2018-Apr-21 13:30N 47°05' W 002°43'612.9
2018-Apr-21 13:00N 47°10' W 002°49'713.2
2018-Apr-21 12:30N 47°15' W 002°55'713.1
2018-Apr-21 12:00N 47°20' W 003°01'612.9
2018-Apr-21 11:30N 47°25' W 003°07'612.2
2018-Apr-21 11:00N 47°30' W 003°12'612.7
2018-Apr-21 10:30N 47°35' W 003°17'612.9
2018-Apr-21 10:00N 47°41' W 003°22'4 8.5
2018-Apr-21 09:30N 47°45' W 003°19'0 0.3
2018-Apr-21 09:00N 47°45' W 003°19'0 0.0
2018-Apr-21 08:30N 47°45' W 003°19'0 0.0
2018-Apr-21 08:00N 47°45' W 003°19'0 0.0
2018-Apr-21 07:30N 47°45' W 003°19'0 0.0
2018-Apr-21 07:00N 47°45' W 003°19'0 0.5
2018-Apr-21 06:30N 47°45' W 003°19'3 5.2
2018-Apr-21 06:00N 47°43' W 003°22'3 6.2
2018-Apr-21 05:30N 47°40' W 003°25'0 0.2
2018-Apr-21 04:59N 47°40' W 003°25'0 0.0
2018-Apr-21 04:30N 47°40' W 003°25'0 0.0
2018-Apr-21 04:00N 47°40' W 003°25'0 0.0
2018-Apr-21 03:30N 47°40' W 003°25'0 0.0
2018-Apr-21 03:00N 47°40' W 003°25'0 0.0
2018-Apr-21 02:30N 47°40' W 003°25'0 0.0
2018-Apr-21 02:00N 47°40' W 003°25'0 0.0
2018-Apr-21 01:30N 47°40' W 003°25'0 0.0
2018-Apr-21 01:00N 47°40' W 003°25'0 0.0
2018-Apr-21 00:30N 47°40' W 003°25'0 0.0
2018-Apr-21 00:00N 47°40' W 003°25'0 0.0
2018-Apr-20 23:30N 47°40' W 003°25'0 0.0
2018-Apr-20 23:00N 47°40' W 003°25'0 0.0
2018-Apr-20 22:30N 47°40' W 003°25'0 0.0
2018-Apr-20 22:00N 47°40' W 003°25'0 0.1
2018-Apr-20 21:30N 47°40' W 003°25'3 6.7
2018-Apr-20 21:00N 47°38' W 003°21'4 7.7
2018-Apr-20 20:30N 47°35' W 003°17'4 7.5
2018-Apr-20 20:00N 47°32' W 003°15'4 7.8
2018-Apr-20 19:30N 47°28' W 003°12'4 7.4
2018-Apr-20 19:00N 47°25' W 003°09'4 7.5
2018-Apr-20 18:30N 47°23' W 003°05'4 7.7
2018-Apr-20 18:00N 47°20' W 003°01'4 7.8
2018-Apr-20 17:30N 47°18' W 002°56'4 7.9
2018-Apr-20 16:59N 47°15' W 002°52'4 8.0
2018-Apr-20 16:30N 47°12' W 002°48'4 8.4
2018-Apr-20 16:00N 47°09' W 002°44'4 8.1
2018-Apr-20 15:30N 47°06' W 002°40'6 7.1
2018-Apr-20 14:38N 47°01' W 002°34'1 5.2
2018-Apr-20 14:21N 46°60' W 002°34'0 1.1
2018-Apr-20 14:00N 47°00' W 002°33'2 1.2
2018-Apr-20 12:35N 46°59' W 002°35'0 0.2
2018-Apr-20 12:30N 46°59' W 002°35'1 2.1
2018-Apr-20 11:58N 46°60' W 002°34'1 2.7
2018-Apr-20 11:30N 47°01' W 002°32'5 9.7
2018-Apr-20 10:59N 47°04' W 002°27'810.1
2018-Apr-20 10:10N 47°10' W 002°19'510.5
2018-Apr-20 09:43N 47°14' W 002°15'311.4
2018-Apr-20 09:28N 47°16' W 002°12'4 9.3
2018-Apr-20 09:00N 47°18' W 002°07'0 0.1
2018-Apr-20 08:30N 47°18' W 002°07'0 0.0
2018-Apr-20 08:00N 47°18' W 002°07'0 0.0
2018-Apr-20 07:30N 47°18' W 002°07'0 0.0
2018-Apr-20 07:00N 47°18' W 002°07'0 0.0
2018-Apr-20 06:30N 47°18' W 002°07'3 6.8
2018-Apr-20 06:00N 47°16' W 002°11'5 9.9
2018-Apr-20 05:30N 47°13' W 002°17'3 6.4
2018-Apr-20 05:00N 47°10' W 002°18'3 6.1
2018-Apr-20 04:30N 47°07' W 002°21'3 6.0
2018-Apr-20 04:00N 47°05' W 002°24'3 6.2
2018-Apr-20 03:30N 47°04' W 002°28'3 6.3
2018-Apr-20 03:00N 47°02' W 002°32'1 2.0
2018-Apr-20 02:30N 47°01' W 002°32'1 2.7
2018-Apr-20 02:00N 47°00' W 002°34'1 2.6
2018-Apr-20 01:31N 46°59' W 002°35'1 1.2
2018-Apr-20 01:00N 46°59' W 002°34'0 0.1
2018-Apr-20 00:30N 46°59' W 002°34'0 0.2
2018-Apr-20 00:00N 46°59' W 002°34'1 1.1
2018-Apr-19 23:30N 46°60' W 002°34'4 8.1
2018-Apr-19 23:00N 47°02' W 002°29'5 9.2
2018-Apr-19 22:30N 47°05' W 002°24'5 9.4
2018-Apr-19 22:00N 47°09' W 002°19'5 9.4
2018-Apr-19 21:30N 47°13' W 002°16'510.2
2018-Apr-19 21:00N 47°17' W 002°11'612.1
2018-Apr-19 20:30N 47°18' W 002°02'612.5
2018-Apr-19 20:00N 47°16' W 001°53'612.5
2018-Apr-19 19:30N 47°12' W 001°46'611.1
2018-Apr-19 19:00N 47°12' W 001°38'0 0.2
2018-Apr-19 18:30N 47°12' W 001°38'0 0.0
2018-Apr-19 18:00N 47°12' W 001°38'0 0.0
2018-Apr-19 17:30N 47°12' W 001°38'0 0.1
2018-Apr-19 17:00N 47°12' W 001°38'4 8.7
2018-Apr-19 16:30N 47°12' W 001°44'510.5
2018-Apr-19 15:58N 47°15' W 001°51'511.7
2018-Apr-19 15:30N 47°17' W 001°59'612.5
2018-Apr-19 15:00N 47°18' W 002°08'612.3
2018-Apr-19 14:30N 47°14' W 002°15'5 9.9
2018-Apr-19 14:00N 47°10' W 002°19'5 9.2
2018-Apr-19 13:25N 47°06' W 002°24'9 9.5
2018-Apr-19 12:26N 47°00' W 002°35'1 1.8
2018-Apr-19 12:00N 46°60' W 002°35'1 1.2
2018-Apr-19 11:08N 47°00' W 002°33'0 1.8
2018-Apr-19 10:59N 47°00' W 002°33'4 7.9
2018-Apr-19 10:30N 47°03' W 002°29'612.7
2018-Apr-19 10:00N 47°07' W 002°22'612.8
2018-Apr-19 09:30N 47°12' W 002°17'713.6
2018-Apr-19 09:01N 47°17' W 002°10'612.6
2018-Apr-19 08:31N 47°17' W 002°01'713.3
2018-Apr-19 08:00N 47°16' W 001°51'612.0
2018-Apr-19 07:31N 47°12' W 001°44'4 8.4
2018-Apr-19 07:01N 47°12' W 001°38'0 0.0
2018-Apr-19 06:31N 47°12' W 001°38'0 0.0
2018-Apr-19 06:00N 47°12' W 001°38'0 0.0
2018-Apr-19 05:31N 47°12' W 001°38'1 2.2
2018-Apr-19 05:01N 47°12' W 001°39'611.2
2018-Apr-19 04:30N 47°13' W 001°48'611.5
2018-Apr-19 04:00N 47°17' W 001°54'612.3
2018-Apr-19 03:31N 47°18' W 002°02'612.0
2018-Apr-19 03:01N 47°16' W 002°11'611.1
2018-Apr-19 02:31N 47°12' W 002°17'4 8.2
2018-Apr-19 02:01N 47°09' W 002°19'4 8.1
2018-Apr-19 01:31N 47°06' W 002°23'4 8.5
2018-Apr-19 01:00N 47°03' W 002°28'3 6.2
2018-Apr-19 00:30N 47°01' W 002°32'3 5.1
2018-Apr-19 00:00N 46°59' W 002°34'1 1.5
2018-Apr-18 23:30N 46°60' W 002°34'1 1.1
2018-Apr-18 22:59N 46°59' W 002°34'0 0.5
2018-Apr-18 22:31N 46°59' W 002°34'3 5.8
2018-Apr-18 22:01N 47°01' W 002°31'612.7
2018-Apr-18 21:31N 47°05' W 002°24'612.7
2018-Apr-18 21:01N 47°11' W 002°18'713.1
2018-Apr-18 20:30N 47°16' W 002°12'612.6
2018-Apr-18 20:01N 47°18' W 002°04'713.7
2018-Apr-18 19:30N 47°17' W 001°53'612.7
2018-Apr-18 19:00N 47°12' W 001°46'611.5
2018-Apr-18 18:30N 47°12' W 001°38'0 0.4
2018-Apr-18 18:00N 47°12' W 001°38'0 0.0
2018-Apr-18 17:30N 47°12' W 001°38'0 0.0
2018-Apr-18 17:00N 47°12' W 001°38'0 0.0
2018-Apr-18 16:29N 47°12' W 001°38'2 3.5
2018-Apr-18 16:00N 47°12' W 001°40'611.2
2018-Apr-18 15:30N 47°13' W 001°48'611.1
2018-Apr-18 15:00N 47°17' W 001°54'612.2
2018-Apr-18 14:29N 47°18' W 002°04'910.2
2018-Apr-18 13:35N 47°14' W 002°15'3 7.0
2018-Apr-18 13:10N 47°11' W 002°18'2 5.5
2018-Apr-18 12:48N 47°10' W 002°19'2 5.5
2018-Apr-18 12:27N 47°08' W 002°20'5 7.5
2018-Apr-18 11:49N 47°05' W 002°25'3 8.3
2018-Apr-18 11:25N 47°02' W 002°29'4 7.8
2018-Apr-18 10:56N 46°60' W 002°33'1 2.0
2018-Apr-18 10:25N 46°59' W 002°34'0 0.2
2018-Apr-18 10:00N 46°59' W 002°34'0 0.1
2018-Apr-18 09:30N 46°59' W 002°34'0 0.2
2018-Apr-18 09:01N 46°59' W 002°34'2 4.7
2018-Apr-18 08:30N 47°01' W 002°37'4 7.5
2018-Apr-18 08:00N 47°02' W 002°42'4 7.0
2018-Apr-18 07:30N 47°04' W 002°47'4 7.5
2018-Apr-18 07:00N 47°06' W 002°51'4 8.7
2018-Apr-18 06:30N 47°08' W 002°56'5 9.0
2018-Apr-18 06:00N 47°11' W 003°02'5 9.2
2018-Apr-18 05:30N 47°13' W 003°08'5 9.2
2018-Apr-18 05:00N 47°16' W 003°13'5 9.4
2018-Apr-18 04:30N 47°19' W 003°19'510.1
2018-Apr-18 04:00N 47°21' W 003°25'510.2
2018-Apr-18 03:29N 47°24' W 003°32'5 9.7
2018-Apr-18 03:01N 47°27' W 003°37'510.3
2018-Apr-18 02:30N 47°29' W 003°44'510.4
2018-Apr-18 02:00N 47°32' W 003°51'5 9.8
2018-Apr-18 01:30N 47°34' W 003°57'7 9.3
2018-Apr-18 00:45N 47°38' W 004°06'2 9.0
2018-Apr-18 00:30N 47°40' W 004°08'5 9.4
2018-Apr-17 23:59N 47°42' W 004°14'9 9.3
2018-Apr-17 23:02N 47°47' W 004°26'0 9.5
2018-Apr-17 23:00N 47°47' W 004°26'6 9.0
2018-Apr-17 22:20N 47°51' W 004°32'4 7.9
2018-Apr-17 21:49N 47°54' W 004°36'3 7.3
2018-Apr-17 21:26N 47°56' W 004°39'4 7.5
2018-Apr-17 20:58N 47°59' W 004°43'4 8.2
2018-Apr-17 20:30N 48°02' W 004°46'4 8.1
2018-Apr-17 20:00N 48°06' W 004°45'4 8.3
2018-Apr-17 19:31N 48°10' W 004°45'4 7.9
2018-Apr-17 19:00N 48°14' W 004°45'3 6.4
2018-Apr-17 18:30N 48°17' W 004°43'3 6.8
2018-Apr-17 18:01N 48°19' W 004°39'4 8.2
2018-Apr-17 17:30N 48°21' W 004°33'4 7.5
2018-Apr-17 17:00N 48°22' W 004°28'1 2.0
2018-Apr-17 16:30N 48°23' W 004°28'0 0.0
2018-Apr-17 16:00N 48°23' W 004°28'0 0.0
2018-Apr-17 15:30N 48°23' W 004°28'0 0.0
2018-Apr-17 15:00N 48°23' W 004°28'0 0.0
2018-Apr-17 14:30N 48°23' W 004°28'0 0.0
2018-Apr-17 14:00N 48°23' W 004°28'0 0.0
2018-Apr-17 13:30N 48°23' W 004°28'0 0.0
2018-Apr-17 13:00N 48°23' W 004°28'0 0.0
2018-Apr-17 12:30N 48°23' W 004°28'0 0.0
2018-Apr-17 12:00N 48°23' W 004°28'0 0.0
2018-Apr-17 11:30N 48°23' W 004°28'0 0.0
2018-Apr-17 11:00N 48°23' W 004°28'0 0.0
2018-Apr-17 10:30N 48°23' W 004°28'0 0.0
2018-Apr-17 10:00N 48°23' W 004°28'0 0.0
2018-Apr-17 09:30N 48°23' W 004°28'0 0.0
2018-Apr-17 09:00N 48°23' W 004°28'0 0.0
2018-Apr-17 08:30N 48°23' W 004°28'0 0.0
2018-Apr-17 08:00N 48°23' W 004°28'0 0.0
2018-Apr-17 07:30N 48°23' W 004°28'0 0.0
2018-Apr-17 07:00N 48°23' W 004°28'0 0.0
2018-Apr-17 06:30N 48°23' W 004°28'0 0.0
2018-Apr-17 06:01N 48°23' W 004°28'0 0.0
2018-Apr-17 05:30N 48°23' W 004°28'0 0.0
2018-Apr-17 05:00N 48°23' W 004°28'0 0.0
2018-Apr-17 04:30N 48°23' W 004°28'0 0.0
2018-Apr-17 04:01N 48°23' W 004°28'0 0.0
2018-Apr-17 03:30N 48°23' W 004°28'0 0.0
2018-Apr-17 03:01N 48°23' W 004°28'0 0.0
2018-Apr-17 02:30N 48°23' W 004°28'0 0.0
2018-Apr-17 02:00N 48°23' W 004°28'0 0.0
2018-Apr-17 01:30N 48°23' W 004°28'0 0.0
2018-Apr-17 01:00N 48°23' W 004°28'0 0.0
2018-Apr-17 00:30N 48°23' W 004°28'0 0.0
2018-Apr-17 00:00N 48°23' W 004°28'0 0.0
2018-Apr-16 23:30N 48°23' W 004°28'0 0.0
2018-Apr-16 23:00N 48°23' W 004°28'0 0.0
2018-Apr-16 22:30N 48°23' W 004°28'0 0.0
2018-Apr-16 22:00N 48°23' W 004°28'0 0.0
2018-Apr-16 21:30N 48°23' W 004°28'0 0.0
2018-Apr-16 21:00N 48°23' W 004°28'0 0.0
2018-Apr-16 20:30N 48°23' W 004°28'0 0.0
2018-Apr-16 20:00N 48°23' W 004°28'0 0.0
2018-Apr-16 19:30N 48°23' W 004°28'0 0.0
2018-Apr-16 19:00N 48°23' W 004°28'0 0.0
2018-Apr-16 18:30N 48°23' W 004°28'0 0.0
2018-Apr-16 18:00N 48°23' W 004°28'0 0.0
2018-Apr-16 17:30N 48°23' W 004°28'0 0.0
2018-Apr-16 17:01N 48°23' W 004°28'0 0.0
2018-Apr-16 16:30N 48°23' W 004°28'0 0.0
2018-Apr-16 16:00N 48°23' W 004°28'0 0.0
2018-Apr-16 15:31N 48°23' W 004°28'0 0.0
2018-Apr-16 15:00N 48°23' W 004°28'0 0.0
2018-Apr-16 14:30N 48°23' W 004°28'0 0.0
2018-Apr-16 14:00N 48°23' W 004°28'0 0.0
2018-Apr-16 13:31N 48°23' W 004°28'0 0.0
2018-Apr-16 13:00N 48°23' W 004°28'0 0.0
2018-Apr-16 12:30N 48°23' W 004°28'0 0.0
2018-Apr-16 12:00N 48°23' W 004°28'0 0.0
2018-Apr-16 11:30N 48°23' W 004°28'0 0.0
2018-Apr-16 11:01N 48°23' W 004°28'0 0.0
2018-Apr-16 10:31N 48°23' W 004°28'0 0.0
2018-Apr-16 10:00N 48°23' W 004°28'0 0.0
2018-Apr-16 09:30N 48°23' W 004°28'0 0.0
2018-Apr-16 09:01N 48°23' W 004°28'0 0.0
2018-Apr-16 08:30N 48°23' W 004°28'0 0.0
2018-Apr-16 08:00N 48°23' W 004°28'0 0.0
2018-Apr-16 07:30N 48°23' W 004°28'0 0.0
2018-Apr-16 07:00N 48°23' W 004°28'0 0.0
2018-Apr-16 06:30N 48°23' W 004°28'0 0.0
2018-Apr-16 06:00N 48°23' W 004°28'0 0.0
2018-Apr-16 05:30N 48°23' W 004°28'0 0.0
2018-Apr-16 05:01N 48°23' W 004°28'0 0.0
2018-Apr-16 04:29N 48°23' W 004°28'0 0.0
2018-Apr-16 04:00N 48°23' W 004°28'0 0.0
2018-Apr-16 03:30N 48°23' W 004°28'  

Dump ship's entire track history